Archival Weather

Snohomish County (Paine Fld)

Everett, Washington (KPAE)

Report from: Tuesday, November 7, 2023 5:29 AM PST
Current time: Monday, June 17, 2024 12:47 AM PDT

Current weather – Weather history – Daily summaries
Weather forecast

Present weatherLight rain
Temperature10.0°C (50.0°F)
Wind chill9.6°C (49.3°F)
Dew point7.8°C (46.0°F)
Winds 3 kts (1.5 m/s, 3.5 mph) Northwest (310°)
Visibility10 mi. (16.1 km)
Clouds Ceiling: Broken clouds 1,500 ft. (457 m)
Overcast 5,000 ft. (1,524 m)
Altimeter29.86 in.Hg (1011 mB)
PrecipitiationTrace
Relative humidity86 %
Density altitude-376 ft. (-115 m)
Remarks Fully automated report
Automated weather observing station with precipitation discriminator
Flight conditions Marginal Visual Meteorological Conditions
Raw dataKPAE 071329Z AUTO 31003KT 10SM -RA BKN015 OVC050 10/08 A2986 RMK AO2 P0000 T01000078
An error has occurred. This application may no longer respond until reloaded. Reload 🗙